createdAt,value
2023-03-28T00:01:54.549Z,17.53
2023-03-28T00:05:01.393Z,18.07
2023-03-28T00:08:08.352Z,18.52
2023-03-28T00:11:20.311Z,19.50
2023-03-28T00:14:26.806Z,18.82
2023-03-28T00:17:36.251Z,18.68
2023-03-28T00:20:44.315Z,18.95
2023-03-28T00:23:52.517Z,18.62
2023-03-28T00:27:13.594Z,18.30
2023-03-28T00:30:20.595Z,18.79
2023-03-28T00:33:38.060Z,19.35
2023-03-28T00:36:51.022Z,19.93
2023-03-28T00:39:59.172Z,20.50
2023-03-28T00:43:06.305Z,20.83
2023-03-28T00:46:33.095Z,20.72
2023-03-28T00:49:42.733Z,21.66
2023-03-28T00:52:59.881Z,23.83
2023-03-28T00:56:27.334Z,25.28
2023-03-28T00:59:38.038Z,25.68
2023-03-28T01:02:51.594Z,23.65
2023-03-28T01:06:08.856Z,22.31
2023-03-28T01:09:34.101Z,19.39
2023-03-28T01:12:47.484Z,19.54
2023-03-28T01:15:59.792Z,21.74
2023-03-28T01:19:08.518Z,24.96
2023-03-28T01:23:22.778Z,23.61
2023-03-28T01:26:57.931Z,21.64
2023-03-28T01:30:45.481Z,21.50
2023-03-28T01:34:51.852Z,20.99
2023-03-28T01:38:16.053Z,20.55
2023-03-28T01:41:40.266Z,18.53
2023-03-28T01:45:05.218Z,17.51
2023-03-28T01:48:33.416Z,17.62
2023-03-28T01:51:58.566Z,17.00
2023-03-28T01:55:21.516Z,17.47
2023-03-28T01:58:43.848Z,17.02
2023-03-28T02:02:09.813Z,16.48
2023-03-28T02:05:23.896Z,18.86
2023-03-28T02:08:39.821Z,26.63
2023-03-28T02:12:34.414Z,21.85
2023-03-28T02:15:56.686Z,17.63
2023-03-28T02:19:28.297Z,15.94
2023-03-28T02:22:59.841Z,15.97
2023-03-28T02:26:28.935Z,15.91
2023-03-28T02:29:58.521Z,15.39
2023-03-28T02:33:41.823Z,16.90
2023-03-28T02:37:07.175Z,14.73
2023-03-28T02:40:41.341Z,13.88
2023-03-28T02:44:24.409Z,14.40
2023-03-28T02:47:48.111Z,15.11
2023-03-28T02:51:17.960Z,14.96
2023-03-28T02:54:39.392Z,14.80
2023-03-28T02:58:26.668Z,14.55
2023-03-28T03:01:34.428Z,14.33
2023-03-28T03:04:44.707Z,15.48
2023-03-28T03:07:52.463Z,15.43
2023-03-28T03:11:06.143Z,14.97
2023-03-28T03:14:17.642Z,14.48
2023-03-28T03:17:27.400Z,14.58
2023-03-28T03:20:36.465Z,14.28
2023-03-28T03:23:43.239Z,14.41
2023-03-28T03:26:49.249Z,14.24
2023-03-28T03:29:56.714Z,13.29
2023-03-28T03:33:16.832Z,12.49
2023-03-28T03:36:43.273Z,13.51
2023-03-28T03:39:50.100Z,14.29
2023-03-28T03:43:04.395Z,12.26
2023-03-28T03:46:12.391Z,12.14
2023-03-28T03:49:19.452Z,11.84
2023-03-28T03:52:28.648Z,11.98
2023-03-28T03:55:36.525Z,13.11
2023-03-28T03:58:42.892Z,16.77
2023-03-28T04:01:49.928Z,18.42
2023-03-28T04:05:14.575Z,14.34
2023-03-28T04:08:49.047Z,12.58
2023-03-28T04:12:04.901Z,13.33
2023-03-28T04:15:16.412Z,16.47
2023-03-28T04:18:55.620Z,13.69
2023-03-28T04:22:04.647Z,12.73
2023-03-28T04:25:14.425Z,12.79
2023-03-28T04:28:21.306Z,13.53
2023-03-28T04:31:56.383Z,12.07
2023-03-28T04:35:08.185Z,12.28
2023-03-28T04:38:20.732Z,11.57
2023-03-28T04:41:49.070Z,12.30
2023-03-28T04:44:55.076Z,11.16
2023-03-28T04:48:02.611Z,10.68
2023-03-28T04:51:27.134Z,9.85
2023-03-28T04:54:55.785Z,9.10
2023-03-28T04:58:14.800Z,9.40
2023-03-28T05:01:22.966Z,8.92
2023-03-28T05:04:29.025Z,8.68
2023-03-28T05:07:37.729Z,8.86
2023-03-28T05:10:47.380Z,8.66
2023-03-28T05:14:08.977Z,10.13
2023-03-28T05:17:22.023Z,10.21
2023-03-28T05:21:03.045Z,11.05
2023-03-28T05:24:10.513Z,11.62
2023-03-28T05:27:17.715Z,12.00
2023-03-28T05:30:26.850Z,13.19
2023-03-28T05:33:36.169Z,14.59
2023-03-28T05:36:43.412Z,21.03
2023-03-28T05:40:00.171Z,29.65
2023-03-28T05:43:06.717Z,26.28
2023-03-28T05:46:18.374Z,15.66
2023-03-28T05:49:29.260Z,13.66
2023-03-28T05:52:36.102Z,17.26
2023-03-28T05:55:45.133Z,18.68
2023-03-28T05:58:51.951Z,16.41
2023-03-28T06:02:03.739Z,12.99
2023-03-28T06:05:11.947Z,12.71
2023-03-28T06:08:18.520Z,17.97
2023-03-28T06:11:25.529Z,14.03
2023-03-28T06:14:51.765Z,14.13
2023-03-28T06:18:10.873Z,13.13
2023-03-28T06:21:23.074Z,13.63
2023-03-28T06:24:29.993Z,13.15
2023-03-28T06:27:36.595Z,13.61
2023-03-28T06:30:43.627Z,13.22
2023-03-28T06:33:52.292Z,12.87
2023-03-28T06:37:02.101Z,12.63
2023-03-28T06:40:25.273Z,10.74
2023-03-28T06:43:35.420Z,11.00
2023-03-28T06:46:53.775Z,17.02
2023-03-28T06:50:07.787Z,10.87
2023-03-28T06:53:32.927Z,10.83
2023-03-28T06:56:46.216Z,8.20
2023-03-28T06:59:52.776Z,10.43
2023-03-28T07:03:06.092Z,17.76
2023-03-28T07:06:15.654Z,18.79
2023-03-28T07:09:23.876Z,15.59
2023-03-28T07:12:36.257Z,10.59
2023-03-28T07:15:49.449Z,11.52
2023-03-28T07:18:55.714Z,15.44
2023-03-28T07:22:27.635Z,14.77
2023-03-28T07:25:33.619Z,13.10
2023-03-28T07:28:41.327Z,12.54
2023-03-28T07:31:53.481Z,13.20
2023-03-28T07:35:00.392Z,11.44
2023-03-28T07:38:21.336Z,11.83
2023-03-28T07:41:31.121Z,13.67
2023-03-28T07:44:46.862Z,12.37
2023-03-28T07:47:55.199Z,14.61
2023-03-28T07:51:02.456Z,25.18
2023-03-28T07:54:18.048Z,11.67
2023-03-28T07:57:25.982Z,14.52
2023-03-28T08:00:51.488Z,14.76
2023-03-28T08:04:19.754Z,17.03
2023-03-28T08:07:42.840Z,17.82
2023-03-28T08:10:53.406Z,19.72
2023-03-28T08:14:00.296Z,13.56
2023-03-28T08:17:10.089Z,17.74
2023-03-28T08:20:17.419Z,24.52
2023-03-28T08:23:57.269Z,25.42
2023-03-28T08:27:39.097Z,18.32
2023-03-28T08:30:51.459Z,19.82
2023-03-28T08:33:59.890Z,12.85
2023-03-28T08:37:15.636Z,22.07
2023-03-28T08:40:32.483Z,13.60
2023-03-28T08:44:17.289Z,21.69
2023-03-28T08:47:35.562Z,29.13
2023-03-28T08:50:49.531Z,21.99
2023-03-28T08:54:17.076Z,22.68
2023-03-28T08:57:30.870Z,20.22
2023-03-28T09:00:49.612Z,14.70
2023-03-28T09:03:56.281Z,13.53
2023-03-28T09:07:28.517Z,14.29
2023-03-28T09:10:48.149Z,10.54
2023-03-28T09:14:27.056Z,12.04
2023-03-28T09:17:58.433Z,9.60
2023-03-28T09:21:19.993Z,7.07
2023-03-28T09:24:51.109Z,13.66
2023-03-28T09:28:16.168Z,13.50
2023-03-28T09:31:37.905Z,11.68
2023-03-28T09:34:53.679Z,11.52
2023-03-28T09:38:16.335Z,17.67
2023-03-28T09:41:32.428Z,14.02
2023-03-28T09:45:30.866Z,10.63
2023-03-28T09:48:43.369Z,12.83
2023-03-28T09:52:00.131Z,11.42
2023-03-28T09:55:31.172Z,10.81
2023-03-28T09:58:58.338Z,10.42
2023-03-28T10:02:33.170Z,11.20
2023-03-28T10:05:45.471Z,9.71
2023-03-28T10:09:18.908Z,13.29
2023-03-28T10:12:43.992Z,9.43
2023-03-28T10:15:52.381Z,9.46
2023-03-28T10:19:40.220Z,4.39
2023-03-28T10:22:59.216Z,6.54
2023-03-28T10:26:25.069Z,6.99
2023-03-28T10:29:32.333Z,6.03
2023-03-28T10:32:38.643Z,5.77
2023-03-28T10:36:13.026Z,5.44
2023-03-28T10:39:29.132Z,7.09
2023-03-28T10:43:01.274Z,8.36
2023-03-28T10:46:24.093Z,5.88
2023-03-28T10:49:58.851Z,6.31
2023-03-28T10:53:29.379Z,8.40
2023-03-28T10:57:08.293Z,11.70
2023-03-28T11:00:53.295Z,11.04
2023-03-28T11:04:40.210Z,11.89
2023-03-28T11:08:01.842Z,8.79
2023-03-28T11:11:58.029Z,5.97
2023-03-28T11:15:16.321Z,5.28
2023-03-28T11:19:12.195Z,8.26
2023-03-28T11:23:03.040Z,12.69
2023-03-28T11:26:42.139Z,12.54
2023-03-28T11:30:21.805Z,8.56
2023-03-28T11:34:07.318Z,10.15
2023-03-28T11:37:24.215Z,10.00
2023-03-28T11:40:52.611Z,7.78
2023-03-28T11:44:21.642Z,9.00
2023-03-28T11:47:41.363Z,12.02
2023-03-28T11:51:22.541Z,10.30
2023-03-28T11:54:49.245Z,11.88
2023-03-28T11:58:20.546Z,10.18
2023-03-28T12:01:42.429Z,11.83
2023-03-28T12:05:00.881Z,6.86
2023-03-28T12:08:20.787Z,6.29
2023-03-28T12:11:49.312Z,6.06
2023-03-28T12:15:06.300Z,6.53
2023-03-28T12:18:36.173Z,8.37
2023-03-28T12:21:56.274Z,9.92
2023-03-28T12:25:37.728Z,22.70
2023-03-28T12:28:54.546Z,23.35
2023-03-28T12:32:36.401Z,12.98
2023-03-28T12:35:57.842Z,17.49
2023-03-28T12:39:35.109Z,11.52
2023-03-28T12:43:09.253Z,6.93
2023-03-28T12:46:24.400Z,10.46
2023-03-28T12:49:46.550Z,7.07
2023-03-28T12:52:55.185Z,6.31
2023-03-28T12:56:25.879Z,6.54
2023-03-28T13:00:17.721Z,7.01
2023-03-28T13:04:08.499Z,7.42
2023-03-28T13:07:53.944Z,10.00
2023-03-28T13:11:16.191Z,8.16
2023-03-28T13:14:38.532Z,11.44
2023-03-28T13:17:51.979Z,8.56
2023-03-28T13:20:59.937Z,11.49
2023-03-28T13:24:34.893Z,8.47
2023-03-28T13:27:41.413Z,9.39
2023-03-28T13:30:50.271Z,8.74
2023-03-28T13:34:03.066Z,9.57
2023-03-28T13:37:24.756Z,9.85
2023-03-28T13:40:51.605Z,14.70
2023-03-28T13:44:09.647Z,14.02
2023-03-28T13:47:35.918Z,10.60
2023-03-28T13:50:48.787Z,12.49
2023-03-28T13:53:54.891Z,10.12
2023-03-28T13:57:08.717Z,17.22
2023-03-28T14:00:21.711Z,16.27
2023-03-28T14:03:29.401Z,10.94
2023-03-28T14:06:45.437Z,15.32
2023-03-28T14:09:53.914Z,12.83
2023-03-28T14:13:06.572Z,16.04
2023-03-28T14:16:15.968Z,20.87
2023-03-28T14:19:33.367Z,26.75
2023-03-28T14:22:56.999Z,22.97
2023-03-28T14:26:20.079Z,24.78
2023-03-28T14:29:29.450Z,23.34
2023-03-28T14:32:41.880Z,17.87
2023-03-28T14:36:05.069Z,13.69
2023-03-28T14:39:21.968Z,16.43
2023-03-28T14:42:33.362Z,14.83
2023-03-28T14:45:48.130Z,18.74
2023-03-28T14:48:57.819Z,17.19
2023-03-28T14:52:07.222Z,16.19
2023-03-28T14:55:23.987Z,12.73
2023-03-28T14:58:31.829Z,37.63
2023-03-28T15:01:42.599Z,36.78
2023-03-28T15:04:53.402Z,22.65
2023-03-28T15:08:05.328Z,35.08
2023-03-28T15:11:25.932Z,32.16
2023-03-28T15:14:45.696Z,27.95
2023-03-28T15:17:58.790Z,10.90
2023-03-28T15:21:11.014Z,14.86
2023-03-28T15:24:22.425Z,8.20
2023-03-28T15:27:36.715Z,11.26
2023-03-28T15:30:48.617Z,10.03
2023-03-28T15:33:57.960Z,14.77
2023-03-28T15:37:09.282Z,9.79
2023-03-28T15:40:29.274Z,10.94
2023-03-28T15:43:59.067Z,13.80
2023-03-28T15:47:13.422Z,10.82
2023-03-28T15:50:33.471Z,11.47
2023-03-28T15:53:40.323Z,12.98
2023-03-28T15:56:51.703Z,16.52
2023-03-28T16:00:02.149Z,12.36
2023-03-28T16:03:37.355Z,13.50
2023-03-28T16:06:47.643Z,13.94
2023-03-28T16:09:53.812Z,11.99
2023-03-28T16:13:00.596Z,11.86
2023-03-28T16:16:38.889Z,14.58
2023-03-28T16:19:59.401Z,20.63
2023-03-28T16:23:07.273Z,22.62
2023-03-28T16:26:15.207Z,21.13
2023-03-28T16:29:21.291Z,24.53
2023-03-28T16:32:31.039Z,22.37
2023-03-28T16:35:37.693Z,19.93
2023-03-28T16:38:45.362Z,24.54
2023-03-28T16:41:51.583Z,23.87
2023-03-28T16:44:59.251Z,24.56
2023-03-28T16:48:08.647Z,21.21
2023-03-28T16:51:15.604Z,22.18
2023-03-28T16:54:21.721Z,16.01
2023-03-28T16:57:31.954Z,17.57
2023-03-28T17:00:38.695Z,18.62
2023-03-28T17:03:49.442Z,16.63
2023-03-28T17:06:56.090Z,16.69
2023-03-28T17:10:02.999Z,14.24
2023-03-28T17:13:09.727Z,19.38
2023-03-28T17:16:17.564Z,17.30
2023-03-28T17:19:26.864Z,19.20
2023-03-28T17:22:33.770Z,28.52
2023-03-28T17:25:53.844Z,21.74
2023-03-28T17:29:01.613Z,14.07
2023-03-28T17:32:09.034Z,18.68
2023-03-28T17:35:19.573Z,16.80
2023-03-28T17:38:26.003Z,15.26
2023-03-28T17:41:33.040Z,17.94
2023-03-28T17:44:39.204Z,18.38
2023-03-28T17:47:46.201Z,18.89
2023-03-28T17:50:58.475Z,18.82
2023-03-28T17:54:07.170Z,22.69
2023-03-28T17:57:13.321Z,18.19
2023-03-28T18:00:22.601Z,17.41
2023-03-28T18:03:28.963Z,16.70
2023-03-28T18:06:51.751Z,14.58
2023-03-28T18:09:57.986Z,11.13
2023-03-28T18:13:04.967Z,10.41
2023-03-28T18:16:15.264Z,12.76
2023-03-28T18:19:22.454Z,12.13
2023-03-28T18:22:31.148Z,10.11
2023-03-28T18:25:39.163Z,10.37
2023-03-28T18:28:45.567Z,9.40
2023-03-28T18:31:52.582Z,9.04
2023-03-28T18:34:58.787Z,10.46
2023-03-28T18:38:08.560Z,10.33
2023-03-28T18:41:22.346Z,15.19
2023-03-28T18:44:36.193Z,12.84
2023-03-28T18:47:43.085Z,14.67
2023-03-28T18:50:56.341Z,15.03
2023-03-28T18:54:05.165Z,12.18
2023-03-28T18:57:12.156Z,13.24
2023-03-28T19:00:28.320Z,11.59
2023-03-28T19:03:40.603Z,11.08
2023-03-28T19:06:46.861Z,14.07
2023-03-28T19:09:56.870Z,17.58
2023-03-28T19:13:23.322Z,14.90
2023-03-28T19:16:52.272Z,17.89
2023-03-28T19:20:05.116Z,21.60
2023-03-28T19:23:12.199Z,14.48
2023-03-28T19:26:22.587Z,15.82
2023-03-28T19:29:30.431Z,19.77
2023-03-28T19:32:36.685Z,17.73
2023-03-28T19:35:44.440Z,13.58
2023-03-28T19:38:50.664Z,18.74
2023-03-28T19:42:00.618Z,18.73
2023-03-28T19:45:07.671Z,16.37
2023-03-28T19:48:18.068Z,14.34
2023-03-28T19:51:24.178Z,19.33
2023-03-28T19:54:31.135Z,19.98
2023-03-28T19:57:39.855Z,24.76
2023-03-28T20:00:46.761Z,28.80
2023-03-28T20:03:53.507Z,30.48
2023-03-28T20:07:01.859Z,35.06
2023-03-28T20:10:10.559Z,27.40
2023-03-28T20:13:20.933Z,43.94
2023-03-28T20:16:41.532Z,43.80
2023-03-28T20:20:01.251Z,36.03
2023-03-28T20:23:12.277Z,33.23
2023-03-28T20:26:28.696Z,35.94
2023-03-28T20:29:43.926Z,32.09
2023-03-28T20:32:57.180Z,22.58
2023-03-28T20:36:09.391Z,22.33
2023-03-28T20:39:19.416Z,20.20
2023-03-28T20:42:31.008Z,22.75
2023-03-28T20:45:46.841Z,22.41
2023-03-28T20:48:57.682Z,23.37
2023-03-28T20:52:08.518Z,24.62
2023-03-28T20:55:25.565Z,22.32
2023-03-28T20:58:41.041Z,18.46
2023-03-28T21:01:52.357Z,16.67
2023-03-28T21:05:05.339Z,16.95
2023-03-28T21:08:13.702Z,18.16
2023-03-28T21:11:26.589Z,19.30
2023-03-28T21:14:32.620Z,19.38
2023-03-28T21:17:46.375Z,20.28
2023-03-28T21:20:53.846Z,20.45
2023-03-28T21:24:01.279Z,19.53
2023-03-28T21:27:07.756Z,19.04
2023-03-28T21:30:15.356Z,18.02
2023-03-28T21:33:30.382Z,16.97
2023-03-28T21:36:37.211Z,18.71
2023-03-28T21:39:43.574Z,20.84
2023-03-28T21:43:03.358Z,22.45
2023-03-28T21:46:11.709Z,20.97
2023-03-28T21:49:21.432Z,18.07
2023-03-28T21:52:27.494Z,16.39
2023-03-28T21:55:34.954Z,13.91
2023-03-28T21:58:41.230Z,13.13
2023-03-28T22:01:57.391Z,13.39
2023-03-28T22:05:29.364Z,14.34
2023-03-28T22:08:36.967Z,15.45
2023-03-28T22:11:42.996Z,15.88
2023-03-28T22:14:49.800Z,16.81
2023-03-28T22:17:58.459Z,17.23
2023-03-28T22:21:09.318Z,17.09
2023-03-28T22:24:15.378Z,16.32
2023-03-28T22:27:22.831Z,16.42
2023-03-28T22:30:28.783Z,17.14
2023-03-28T22:33:36.061Z,17.31
2023-03-28T22:36:44.719Z,17.41
2023-03-28T22:39:51.955Z,16.80
2023-03-28T22:42:59.577Z,16.47
2023-03-28T22:46:07.377Z,16.88
2023-03-28T22:49:22.278Z,17.18
2023-03-28T22:52:32.110Z,16.68
2023-03-28T22:55:38.564Z,17.35
2023-03-28T22:58:45.399Z,18.43
2023-03-28T23:01:51.718Z,19.06
2023-03-28T23:04:58.971Z,20.94
2023-03-28T23:08:08.565Z,26.05
2023-03-28T23:11:15.363Z,30.53
2023-03-28T23:14:22.394Z,32.48
2023-03-28T23:17:29.723Z,32.40
2023-03-28T23:20:35.989Z,33.27
2023-03-28T23:23:46.869Z,34.23
2023-03-28T23:26:52.932Z,32.90
2023-03-28T23:29:59.834Z,33.09
2023-03-28T23:33:05.900Z,34.33
2023-03-28T23:36:14.385Z,31.59
2023-03-28T23:39:23.168Z,30.27
2023-03-28T23:42:30.201Z,27.06
2023-03-28T23:45:36.279Z,24.10
2023-03-28T23:48:46.364Z,21.21
2023-03-28T23:51:56.513Z,20.81
2023-03-28T23:55:08.196Z,19.16
2023-03-28T23:58:14.142Z,18.80
